Bookmark and Share
Track history (hours):
 

Haukur

Last reported at 2014-Apr-18 23:33 UTC. Time now 2014-Apr-19 00:01 UTC.
Position N 55°13' E 013°28'.

Length 75 m; draft 4.2 m.

Type: Cargo ship. MMSI: 231812000.

NotesDate/timePositionNaut miles runAvg speedWind from/ knotsBaromVisibWave heightAir tempDewpointWater temp
2014-Apr-18 23:33N 55°13' E 013°28'10 9.9
2014-Apr-18 22:33N 55°14' E 013°11'10 9.8
2014-Apr-18 21:33N 55°15' E 012°53'9 9.3
2014-Apr-18 20:33N 55°18' E 012°38'1010.2
2014-Apr-18 19:33N 55°28' E 012°41'10 9.9
2014-Apr-18 18:33N 55°38' E 012°42'1010.0
2014-Apr-18 17:33N 55°48' E 012°40'1010.0
2014-Apr-18 16:33N 55°58' E 012°37'9 9.3
2014-Apr-18 15:33N 56°07' E 012°31'1110.7
2014-Apr-18 14:33N 56°11' E 012°14'44 1.5
2014-Apr-17 10:03N 56°26' E 011°00'31 6.9
2014-Apr-17 05:32N 56°57' E 010°51'8 7.7
2014-Apr-17 04:32N 57°04' E 010°48'8 8.3
2014-Apr-17 03:33N 57°12' E 010°44'9 8.0
2014-Apr-17 02:29N 57°21' E 010°42'8 8.2
2014-Apr-17 01:33N 57°28' E 010°42'8 8.3
2014-Apr-17 00:33N 57°37' E 010°44'8 8.4
2014-Apr-16 23:33N 57°45' E 010°45'8 8.1
2014-Apr-16 22:33N 57°47' E 010°30'9 9.4
2014-Apr-16 21:33N 57°48' E 010°13'14 9.5
2014-Apr-16 20:08N 57°49' E 009°47'107 8.5
2014-Apr-16 07:33N 58°06' E 006°28'9 9.3
2014-Apr-16 06:33N 58°14' E 006°18'6 5.7
2014-Apr-16 05:33N 58°20' E 006°16'0 0.0
2014-Apr-16 04:33N 58°20' E 006°16'0 0.0
2014-Apr-16 03:33N 58°20' E 006°16'0 0.0
2014-Apr-16 02:33N 58°20' E 006°16'0 0.0
2014-Apr-16 01:33N 58°20' E 006°16'0 0.0
2014-Apr-16 00:31N 58°20' E 006°16'0 0.0
2014-Apr-15 23:31N 58°20' E 006°16'0 0.0
2014-Apr-15 22:33N 58°20' E 006°16'2 2.3
2014-Apr-15 21:33N 58°19' E 006°12'1 0.6
2014-Apr-15 20:33N 58°19' E 006°11'4 4.3
2014-Apr-15 19:33N 58°20' E 006°03'8 7.8
2014-Apr-15 18:34N 58°23' E 005°49'1110.5
2014-Apr-15 17:32N 58°26' E 005°30'429 9.9
2014-Apr-13 22:12N 61°57' W 007°02'  

Dump ship's entire track history

sailing weather and tide predictions

Haukur — OZ2119 — position and weather